createdAt,value
2018-06-20T00:00:25.834Z,21.40
2018-06-20T00:02:53.916Z,21.40
2018-06-20T00:05:22.002Z,21.40
2018-06-20T00:07:50.079Z,21.30
2018-06-20T00:10:18.210Z,21.20
2018-06-20T00:12:46.296Z,21.20
2018-06-20T00:15:14.394Z,21.20
2018-06-20T00:17:42.476Z,21.20
2018-06-20T00:20:10.558Z,21.10
2018-06-20T00:22:38.685Z,21.10
2018-06-20T00:25:06.768Z,21.10
2018-06-20T00:27:34.852Z,21.10
2018-06-20T00:30:02.949Z,21.00
2018-06-20T00:32:31.041Z,21.10
2018-06-20T00:34:59.128Z,21.10
2018-06-20T00:37:27.354Z,21.10
2018-06-20T00:39:55.438Z,21.10
2018-06-20T00:42:23.529Z,21.10
2018-06-20T00:44:51.599Z,21.00
2018-06-20T00:47:19.689Z,21.10
2018-06-20T00:49:47.760Z,21.00
2018-06-20T00:52:15.868Z,21.00
2018-06-20T00:54:43.933Z,21.00
2018-06-20T00:57:12.017Z,21.00
2018-06-20T00:59:40.256Z,21.10
2018-06-20T01:02:08.330Z,21.00
2018-06-20T01:04:36.410Z,21.00
2018-06-20T01:07:04.488Z,21.00
2018-06-20T01:09:32.569Z,21.00
2018-06-20T01:12:00.669Z,20.90
2018-06-20T01:14:28.753Z,20.90
2018-06-20T01:16:56.824Z,20.80
2018-06-20T01:19:24.906Z,20.80
2018-06-20T01:21:52.981Z,20.80
2018-06-20T01:24:21.082Z,20.80
2018-06-20T01:26:49.140Z,20.80
2018-06-20T01:29:17.216Z,20.80
2018-06-20T01:31:45.289Z,20.80
2018-06-20T01:34:13.370Z,20.80
2018-06-20T01:36:41.441Z,20.80
2018-06-20T01:39:10.921Z,20.80
2018-06-20T01:41:38.986Z,20.80
2018-06-20T01:44:07.072Z,20.80
2018-06-20T01:46:35.224Z,20.70
2018-06-20T01:49:03.312Z,20.70
2018-06-20T01:51:31.368Z,20.60
2018-06-20T01:53:59.428Z,20.60
2018-06-20T01:56:27.517Z,20.60
2018-06-20T01:58:55.593Z,20.70
2018-06-20T02:01:23.668Z,20.70
2018-06-20T02:03:51.741Z,20.70
2018-06-20T02:06:19.829Z,20.60
2018-06-20T02:08:47.897Z,20.60
2018-06-20T02:11:15.978Z,20.60
2018-06-20T02:13:44.050Z,20.60
2018-06-20T02:16:12.134Z,20.50
2018-06-20T02:18:40.200Z,20.50
2018-06-20T02:21:08.290Z,20.40
2018-06-20T02:23:36.369Z,20.50
2018-06-20T02:26:04.757Z,20.50
2018-06-20T02:28:32.845Z,20.40
2018-06-20T02:31:00.926Z,20.50
2018-06-20T02:33:29.022Z,20.50
2018-06-20T02:36:01.437Z,20.50
2018-06-20T02:38:29.737Z,20.50
2018-06-20T02:40:57.834Z,20.40
2018-06-20T02:43:25.912Z,20.30
2018-06-20T02:45:53.997Z,20.30
2018-06-20T02:48:22.073Z,20.30
2018-06-20T02:50:50.168Z,20.40
2018-06-20T02:55:46.104Z,20.30
2018-06-20T02:58:14.196Z,20.40
2018-06-20T03:00:42.273Z,20.40
2018-06-20T03:03:10.362Z,20.30
2018-06-20T03:05:38.441Z,20.20
2018-06-20T03:08:06.538Z,20.20
2018-06-20T03:10:34.608Z,20.10
2018-06-20T03:13:02.728Z,20.00
2018-06-20T03:15:30.809Z,20.00
2018-06-20T03:17:58.885Z,20.00
2018-06-20T03:20:27.039Z,20.00
2018-06-20T03:22:55.317Z,20.00
2018-06-20T03:25:23.417Z,20.00
2018-06-20T03:27:51.510Z,20.00
2018-06-20T03:30:19.589Z,20.00
2018-06-20T03:32:47.677Z,19.90
2018-06-20T03:35:15.766Z,20.00
2018-06-20T03:37:43.842Z,20.00
2018-06-20T03:40:11.920Z,20.00
2018-06-20T03:42:40.000Z,20.00
2018-06-20T03:45:08.109Z,20.00
2018-06-20T03:47:36.185Z,20.00
2018-06-20T03:52:32.493Z,19.90
2018-06-20T03:55:00.602Z,19.90
2018-06-20T03:57:28.678Z,20.00
2018-06-20T03:59:56.766Z,20.00
2018-06-20T04:02:24.913Z,19.90
2018-06-20T04:04:52.942Z,19.90
2018-06-20T04:07:21.033Z,20.00
2018-06-20T04:09:49.122Z,19.90
2018-06-20T04:12:17.348Z,19.90
2018-06-20T04:14:45.448Z,19.90
2018-06-20T04:17:13.526Z,19.80
2018-06-20T04:19:41.609Z,19.80
2018-06-20T04:24:37.573Z,19.80
2018-06-20T04:27:05.666Z,19.80
2018-06-20T04:29:33.741Z,19.80
2018-06-20T04:32:01.829Z,19.80
2018-06-20T04:34:29.902Z,19.80
2018-06-20T04:36:57.984Z,19.80
2018-06-20T04:39:26.469Z,19.80
2018-06-20T04:41:54.565Z,19.80
2018-06-20T04:46:50.503Z,19.90
2018-06-20T04:49:18.605Z,19.90
2018-06-20T04:51:46.778Z,19.90
2018-06-20T04:54:14.857Z,19.90
2018-06-20T04:56:42.938Z,19.90
2018-06-20T04:59:11.025Z,19.90
2018-06-20T05:01:39.106Z,20.00
2018-06-20T05:04:07.206Z,20.10
2018-06-20T05:09:07.482Z,20.00
2018-06-20T05:11:35.597Z,20.00
2018-06-20T05:14:03.697Z,20.10
2018-06-20T05:16:31.780Z,20.10
2018-06-20T05:18:59.879Z,20.20
2018-06-20T05:21:27.965Z,20.20
2018-06-20T05:23:56.045Z,20.20
2018-06-20T05:26:24.134Z,20.30
2018-06-20T05:28:52.223Z,20.40
2018-06-20T05:31:20.292Z,20.40
2018-06-20T05:33:48.370Z,20.40
2018-06-20T05:36:16.445Z,20.50
2018-06-20T05:38:44.553Z,20.50
2018-06-20T05:41:12.636Z,20.60
2018-06-20T05:43:40.730Z,20.70
2018-06-20T05:46:08.826Z,20.70
2018-06-20T05:48:36.909Z,20.80
2018-06-20T05:51:05.001Z,20.80
2018-06-20T05:53:33.077Z,20.80
2018-06-20T05:56:01.156Z,20.80
2018-06-20T05:58:29.240Z,21.00
2018-06-20T06:00:57.329Z,21.10
2018-06-20T06:03:25.405Z,21.10
2018-06-20T06:06:04.898Z,21.10
2018-06-20T06:08:32.970Z,21.20
2018-06-20T06:11:01.070Z,21.20
2018-06-20T06:15:57.014Z,21.30
2018-06-20T06:18:25.096Z,21.30
2018-06-20T06:20:53.168Z,21.40
2018-06-20T06:23:21.293Z,21.40
2018-06-20T06:25:49.332Z,21.50
2018-06-20T06:28:17.433Z,21.50
2018-06-20T06:30:45.504Z,21.60
2018-06-20T06:33:13.590Z,21.70
2018-06-20T06:35:41.676Z,21.70
2018-06-20T06:38:09.754Z,21.70
2018-06-20T06:40:37.816Z,21.80
2018-06-20T06:43:06.044Z,21.90
2018-06-20T06:45:34.112Z,21.90
2018-06-20T06:48:02.392Z,22.00
2018-06-20T06:50:30.661Z,22.10
2018-06-20T06:52:58.736Z,22.10
2018-06-20T06:55:26.801Z,22.20
2018-06-20T06:57:54.877Z,22.30
2018-06-20T07:00:22.949Z,22.30
2018-06-20T07:02:51.101Z,22.30
2018-06-20T07:05:19.182Z,22.40
2018-06-20T07:07:47.290Z,22.40
2018-06-20T07:10:15.385Z,22.50
2018-06-20T07:15:11.309Z,22.50
2018-06-20T07:17:39.376Z,22.60
2018-06-20T07:20:07.451Z,22.80
2018-06-20T07:22:35.682Z,22.90
2018-06-20T07:25:03.845Z,22.90
2018-06-20T07:27:31.905Z,22.90
2018-06-20T07:30:00.078Z,22.90
2018-06-20T07:32:28.049Z,23.10
2018-06-20T07:34:56.125Z,23.10
2018-06-20T07:37:24.226Z,23.10
2018-06-20T07:39:52.312Z,23.20
2018-06-20T07:42:20.548Z,23.20
2018-06-20T07:44:48.628Z,23.40
2018-06-20T07:47:16.794Z,23.50
2018-06-20T07:49:44.873Z,23.50
2018-06-20T07:52:12.968Z,23.50
2018-06-20T07:54:41.051Z,23.60
2018-06-20T07:57:09.138Z,23.60
2018-06-20T07:59:42.630Z,23.70
2018-06-20T08:04:55.305Z,23.70
2018-06-20T08:07:28.618Z,23.70
2018-06-20T08:10:02.162Z,23.80
2018-06-20T08:12:35.610Z,23.80
2018-06-20T08:15:11.657Z,23.70
2018-06-20T08:17:45.202Z,23.80
2018-06-20T08:20:19.992Z,23.90
2018-06-20T08:22:48.067Z,23.90
2018-06-20T08:25:16.153Z,24.00
2018-06-20T08:27:44.228Z,24.20
2018-06-20T08:30:12.310Z,24.20
2018-06-20T08:32:40.389Z,24.20
2018-06-20T08:37:36.332Z,24.40
2018-06-20T08:40:04.495Z,24.50
2018-06-20T08:42:32.617Z,24.60
2018-06-20T08:45:00.645Z,24.60
2018-06-20T08:47:28.746Z,24.70
2018-06-20T08:49:56.813Z,24.70
2018-06-20T08:52:25.317Z,24.80
2018-06-20T08:54:53.388Z,24.90
2018-06-20T08:57:21.502Z,25.00
2018-06-20T08:59:49.572Z,25.10
2018-06-20T09:02:18.513Z,25.10
2018-06-20T09:04:52.324Z,25.20
2018-06-20T09:07:25.914Z,25.30
2018-06-20T09:09:59.345Z,25.40
2018-06-20T09:12:32.777Z,25.40
2018-06-20T09:15:06.104Z,25.40
2018-06-20T09:17:39.633Z,25.40
2018-06-20T09:20:07.728Z,25.40
2018-06-20T09:22:35.810Z,25.30
2018-06-20T09:25:03.910Z,25.30
2018-06-20T09:27:32.017Z,25.30
2018-06-20T09:30:00.106Z,25.20
2018-06-20T09:32:28.169Z,25.30
2018-06-20T09:37:24.109Z,25.70
2018-06-20T09:39:52.193Z,25.70
2018-06-20T09:42:20.265Z,25.90
2018-06-20T09:44:48.368Z,26.00
2018-06-20T09:47:16.437Z,26.10
2018-06-20T09:49:44.512Z,26.20
2018-06-20T09:52:12.594Z,26.20
2018-06-20T09:54:40.694Z,26.00
2018-06-20T09:57:08.874Z,26.10
2018-06-20T09:59:42.311Z,26.10
2018-06-20T10:02:15.842Z,26.30
2018-06-20T10:04:49.461Z,26.50
2018-06-20T10:07:22.952Z,26.60
2018-06-20T10:09:56.286Z,26.70
2018-06-20T10:12:29.604Z,26.80
2018-06-20T10:14:57.697Z,26.90
2018-06-20T10:17:25.772Z,27.10
2018-06-20T10:19:53.862Z,27.10
2018-06-20T10:22:21.932Z,27.10
2018-06-20T10:24:50.034Z,27.20
2018-06-20T10:27:18.116Z,27.20
2018-06-20T10:29:46.220Z,27.30
2018-06-20T10:32:14.332Z,27.20
2018-06-20T10:34:42.421Z,27.20
2018-06-20T10:37:10.492Z,27.10
2018-06-20T10:39:38.581Z,27.10
2018-06-20T10:42:06.652Z,27.10
2018-06-20T10:44:34.741Z,27.10
2018-06-20T10:47:08.290Z,27.20
2018-06-20T10:49:36.387Z,27.30
2018-06-20T10:52:04.462Z,27.30
2018-06-20T10:54:32.542Z,27.40
2018-06-20T10:57:05.833Z,27.50
2018-06-20T10:59:39.253Z,27.60
2018-06-20T11:02:12.792Z,27.80
2018-06-20T11:04:46.225Z,27.90
2018-06-20T11:07:19.629Z,28.00
2018-06-20T11:09:53.225Z,28.00
2018-06-20T11:12:26.668Z,28.10
2018-06-20T11:14:54.769Z,28.30
2018-06-20T11:17:22.843Z,28.50
2018-06-20T11:19:50.917Z,28.50
2018-06-20T11:22:19.005Z,28.70
2018-06-20T11:24:47.090Z,28.70
2018-06-20T11:27:15.215Z,28.70
2018-06-20T11:29:43.290Z,28.80
2018-06-20T11:32:11.373Z,28.90
2018-06-20T11:34:39.439Z,29.00
2018-06-20T11:37:07.520Z,29.00
2018-06-20T11:39:35.660Z,29.10
2018-06-20T11:42:03.677Z,29.30
2018-06-20T11:44:31.744Z,29.50
2018-06-20T11:47:05.350Z,29.50
2018-06-20T11:49:33.473Z,29.50
2018-06-20T11:52:05.801Z,29.50
2018-06-20T11:54:33.878Z,29.60
2018-06-20T11:57:01.967Z,29.90
2018-06-20T11:59:35.249Z,30.00
2018-06-20T12:02:08.554Z,30.00
2018-06-20T12:04:41.953Z,30.10
2018-06-20T12:07:15.264Z,30.10
2018-06-20T12:09:48.640Z,30.20
2018-06-20T12:12:21.943Z,30.20
2018-06-20T12:14:55.373Z,30.30
2018-06-20T12:17:28.653Z,30.40
2018-06-20T12:20:02.244Z,30.40
2018-06-20T12:22:35.685Z,30.50
2018-06-20T12:25:09.088Z,30.70
2018-06-20T12:27:42.369Z,31.00
2018-06-20T12:30:15.804Z,31.20
2018-06-20T12:32:49.110Z,31.40
2018-06-20T12:35:22.660Z,31.50
2018-06-20T12:37:56.208Z,31.70
2018-06-20T12:40:29.401Z,31.60
2018-06-20T12:43:02.706Z,31.80
2018-06-20T12:45:30.773Z,32.00
2018-06-20T12:47:59.082Z,32.30
2018-06-20T12:50:27.969Z,32.70
2018-06-20T12:52:56.562Z,33.20
2018-06-20T12:55:25.536Z,33.60
2018-06-20T12:57:54.337Z,34.10
2018-06-20T13:00:22.404Z,35.20
2018-06-20T13:02:50.490Z,35.80
2018-06-20T13:05:18.553Z,36.70
2018-06-20T13:07:46.629Z,38.50
2018-06-20T13:10:14.706Z,40.60
2018-06-20T13:12:42.787Z,42.40
2018-06-20T13:15:10.855Z,43.50
2018-06-20T13:17:38.926Z,43.70
2018-06-20T13:20:07.051Z,44.10
2018-06-20T13:22:35.076Z,44.30
2018-06-20T13:25:03.156Z,44.00
2018-06-20T13:27:36.685Z,42.90
2018-06-20T13:30:10.109Z,43.40
2018-06-20T13:32:43.520Z,42.80
2018-06-20T13:35:16.855Z,43.50
2018-06-20T13:37:50.304Z,43.10
2018-06-20T13:40:23.885Z,43.10
2018-06-20T13:42:57.417Z,42.70
2018-06-20T13:45:30.820Z,42.20
2018-06-20T13:48:04.370Z,42.30
2018-06-20T13:50:32.768Z,42.60
2018-06-20T13:53:01.137Z,43.10
2018-06-20T13:55:29.233Z,42.90
2018-06-20T13:57:57.308Z,42.10
2018-06-20T14:00:25.462Z,41.70
2018-06-20T14:02:53.557Z,41.50
2018-06-20T14:05:21.655Z,40.70
2018-06-20T14:07:49.731Z,40.50
2018-06-20T14:10:17.857Z,40.00
2018-06-20T14:12:45.939Z,40.00
2018-06-20T14:15:14.022Z,39.70
2018-06-20T14:17:42.116Z,39.80
2018-06-20T14:20:15.433Z,39.90
2018-06-20T14:22:43.520Z,40.00
2018-06-20T14:25:11.600Z,39.80
2018-06-20T14:27:39.689Z,39.90
2018-06-20T14:30:07.778Z,39.70
2018-06-20T14:32:41.285Z,39.70
2018-06-20T14:35:14.773Z,39.70
2018-06-20T14:40:21.593Z,39.50
2018-06-20T14:42:55.061Z,39.10
2018-06-20T14:45:28.374Z,39.40
2018-06-20T14:47:56.457Z,39.30
2018-06-20T14:50:24.533Z,39.00
2018-06-20T14:52:52.614Z,39.00
2018-06-20T14:55:20.733Z,39.30
2018-06-20T14:57:48.773Z,39.60
2018-06-20T15:00:16.845Z,39.50
2018-06-20T15:02:44.933Z,39.40
2018-06-20T15:05:13.012Z,39.40
2018-06-20T15:07:41.089Z,39.30
2018-06-20T15:10:09.173Z,39.30
2018-06-20T15:12:37.253Z,39.30
2018-06-20T15:15:05.356Z,38.80
2018-06-20T15:17:33.446Z,38.30
2018-06-20T15:20:01.527Z,38.40
2018-06-20T15:22:33.857Z,38.80
2018-06-20T15:25:01.947Z,39.00
2018-06-20T15:27:35.233Z,38.70
2018-06-20T15:30:08.508Z,38.70
2018-06-20T15:32:41.942Z,38.80
2018-06-20T15:35:15.401Z,38.70
2018-06-20T15:38:48.393Z,38.80
2018-06-20T15:41:16.474Z,39.20
2018-06-20T15:43:44.581Z,39.30
2018-06-20T15:46:12.652Z,39.30
2018-06-20T15:48:40.741Z,38.70
2018-06-20T15:53:36.732Z,37.80
2018-06-20T15:56:04.829Z,37.10
2018-06-20T15:58:32.916Z,36.90
2018-06-20T16:03:28.865Z,35.90
2018-06-20T16:05:56.948Z,36.10
2018-06-20T16:08:25.034Z,36.00
2018-06-20T16:10:53.109Z,35.90
2018-06-20T16:13:21.290Z,36.00
2018-06-20T16:15:49.384Z,36.10
2018-06-20T16:18:18.761Z,36.10
2018-06-20T16:20:52.205Z,35.90
2018-06-20T16:23:25.610Z,35.70
2018-06-20T16:25:59.034Z,35.40
2018-06-20T16:28:32.429Z,35.50
2018-06-20T16:31:00.514Z,35.70
2018-06-20T16:33:28.593Z,35.60
2018-06-20T16:35:56.669Z,35.40
2018-06-20T16:38:24.742Z,35.30
2018-06-20T16:40:52.821Z,35.40
2018-06-20T16:43:20.881Z,35.30
2018-06-20T16:45:48.955Z,35.10
2018-06-20T16:48:17.030Z,35.20
2018-06-20T16:50:45.113Z,35.20
2018-06-20T16:53:13.185Z,35.00
2018-06-20T16:55:41.256Z,35.10
2018-06-20T16:58:09.332Z,35.00
2018-06-20T17:03:05.269Z,34.70
2018-06-20T17:05:33.345Z,34.70
2018-06-20T17:08:01.442Z,34.70
2018-06-20T17:10:29.513Z,34.70
2018-06-20T17:13:03.051Z,34.60
2018-06-20T17:15:36.472Z,34.40
2018-06-20T17:18:09.888Z,34.40
2018-06-20T17:25:44.589Z,34.20
2018-06-20T17:28:12.662Z,34.00
2018-06-20T17:30:40.737Z,33.90
2018-06-20T17:33:08.822Z,33.80
2018-06-20T17:35:36.902Z,33.70
2018-06-20T17:38:05.095Z,33.60
2018-06-20T17:40:33.102Z,33.50
2018-06-20T17:43:01.189Z,33.30
2018-06-20T17:45:29.257Z,33.30
2018-06-20T17:47:57.349Z,33.20
2018-06-20T17:50:25.430Z,33.20
2018-06-20T17:52:53.508Z,33.10
2018-06-20T17:55:21.585Z,33.00
2018-06-20T17:57:49.683Z,32.90
2018-06-20T18:00:17.766Z,32.70
2018-06-20T18:02:45.849Z,32.60
2018-06-20T18:05:19.438Z,32.50
2018-06-20T18:07:52.873Z,32.40
2018-06-20T18:10:26.473Z,32.30
2018-06-20T18:12:55.449Z,32.40
2018-06-20T18:15:28.898Z,32.20
2018-06-20T18:17:57.108Z,32.20
2018-06-20T18:20:25.203Z,32.10
2018-06-20T18:22:53.284Z,32.00
2018-06-20T18:25:21.389Z,32.00
2018-06-20T18:27:49.501Z,31.90
2018-06-20T18:30:17.581Z,31.80
2018-06-20T18:32:45.644Z,31.70
2018-06-20T18:35:13.726Z,31.50
2018-06-20T18:37:41.802Z,31.40
2018-06-20T18:40:10.986Z,31.40
2018-06-20T18:42:39.073Z,31.20
2018-06-20T18:45:07.180Z,31.10
2018-06-20T18:47:40.621Z,30.90
2018-06-20T18:50:09.410Z,30.90
2018-06-20T18:52:37.621Z,30.80
2018-06-20T18:55:05.835Z,30.60
2018-06-20T18:57:39.274Z,30.60
2018-06-20T19:00:13.249Z,30.50
2018-06-20T19:02:46.538Z,30.40
2018-06-20T19:05:19.828Z,30.30
2018-06-20T19:07:53.304Z,30.30
2018-06-20T19:10:21.430Z,30.20
2018-06-20T19:12:49.513Z,30.10
2018-06-20T19:15:17.605Z,30.00
2018-06-20T19:17:45.682Z,30.10
2018-06-20T19:20:13.760Z,29.90
2018-06-20T19:22:41.850Z,29.90
2018-06-20T19:25:09.957Z,29.80
2018-06-20T19:27:38.040Z,29.70
2018-06-20T19:30:06.122Z,29.60
2018-06-20T19:35:02.090Z,29.50
2018-06-20T19:37:30.178Z,29.30
2018-06-20T19:39:58.262Z,29.20
2018-06-20T19:42:26.457Z,29.10
2018-06-20T19:44:54.850Z,29.20
2018-06-20T19:47:22.809Z,29.00
2018-06-20T19:49:50.901Z,29.00
2018-06-20T19:52:18.993Z,28.90
2018-06-20T19:54:47.073Z,28.90
2018-06-20T19:57:15.211Z,28.90
2018-06-20T19:59:43.237Z,28.80
2018-06-20T20:02:11.329Z,28.70
2018-06-20T20:04:39.417Z,28.80
2018-06-20T20:07:07.509Z,28.80
2018-06-20T20:09:35.592Z,28.70
2018-06-20T20:12:03.675Z,28.70
2018-06-20T20:14:31.782Z,28.60
2018-06-20T20:16:59.868Z,28.60
2018-06-20T20:19:27.954Z,28.50
2018-06-20T20:21:56.033Z,28.30
2018-06-20T20:24:24.421Z,28.10
2018-06-20T20:26:52.513Z,28.00
2018-06-20T20:29:20.593Z,27.90
2018-06-20T20:31:48.669Z,28.00
2018-06-20T20:34:16.761Z,28.20
2018-06-20T20:36:44.840Z,28.10
2018-06-20T20:39:12.929Z,28.00
2018-06-20T20:41:41.041Z,27.90
2018-06-20T20:44:09.148Z,27.70
2018-06-20T20:46:37.590Z,27.50
2018-06-20T20:49:06.532Z,27.30
2018-06-20T20:51:34.616Z,27.20
2018-06-20T20:54:02.697Z,27.00
2018-06-20T20:56:30.781Z,26.90
2018-06-20T20:58:58.911Z,26.80
2018-06-20T21:01:26.949Z,26.60
2018-06-20T21:03:55.249Z,26.60
2018-06-20T21:06:23.321Z,26.50
2018-06-20T21:11:19.418Z,26.40
2018-06-20T21:13:47.498Z,26.20
2018-06-20T21:16:15.585Z,26.20
2018-06-20T21:18:43.673Z,26.20
2018-06-20T21:23:39.608Z,26.00
2018-06-20T21:26:07.714Z,25.90
2018-06-20T21:28:35.810Z,25.80
2018-06-20T21:31:03.905Z,25.70
2018-06-20T21:33:32.047Z,25.40
2018-06-20T21:36:00.086Z,25.30
2018-06-20T21:38:28.156Z,25.10
2018-06-20T21:40:56.249Z,24.90
2018-06-20T21:43:24.326Z,24.80
2018-06-20T21:45:52.413Z,24.80
2018-06-20T21:48:20.498Z,24.70
2018-06-20T21:50:48.606Z,24.80
2018-06-20T21:53:16.709Z,24.80
2018-06-20T21:55:44.774Z,24.80
2018-06-20T21:58:12.857Z,24.80
2018-06-20T22:00:40.966Z,24.80
2018-06-20T22:03:09.097Z,24.80
2018-06-20T22:05:37.125Z,24.80
2018-06-20T22:08:05.218Z,24.70
2018-06-20T22:10:33.297Z,24.70
2018-06-20T22:13:01.381Z,24.70
2018-06-20T22:15:29.452Z,24.70
2018-06-20T22:17:57.532Z,24.70
2018-06-20T22:20:25.614Z,24.70
2018-06-20T22:22:53.714Z,24.80
2018-06-20T22:25:21.796Z,24.80
2018-06-20T22:27:49.881Z,24.80
2018-06-20T22:30:17.961Z,24.80
2018-06-20T22:32:46.049Z,24.70
2018-06-20T22:35:14.116Z,24.70
2018-06-20T22:37:42.233Z,24.60
2018-06-20T22:40:10.305Z,24.50
2018-06-20T22:42:38.401Z,24.60
2018-06-20T22:45:06.478Z,24.60
2018-06-20T22:47:34.571Z,24.70
2018-06-20T22:50:02.645Z,24.70
2018-06-20T22:52:30.724Z,24.60
2018-06-20T22:54:58.801Z,24.60
2018-06-20T22:57:26.885Z,24.50
2018-06-20T22:59:55.004Z,24.30
2018-06-20T23:02:23.092Z,24.30
2018-06-20T23:04:51.160Z,24.20
2018-06-20T23:07:19.233Z,24.10
2018-06-20T23:09:47.339Z,24.10
2018-06-20T23:12:15.394Z,24.20
2018-06-20T23:14:43.472Z,24.10
2018-06-20T23:17:11.551Z,24.00
2018-06-20T23:19:39.641Z,24.00
